Élőkép

Információk

Albatrosz Repülő Egyesület
8000 Székesfehérvár,
Radványi utca 6.

Adószám:
19092908-2-07

Bankszámla szám:
Budapest Bank
10102952-01361819-00000001

Telefon: +36 30 9598-897

Telephey: Börgönd repülőtér

Börgöndi repülõtér

LHBP METAR/TAF

[source: ADDS]
METAR
TAF LHBP 191100Z 1912/2012 32010KT CAVOK BECMG 1917/1919 28005KT BECMG 1922/1924 VRB03KT BECMG 2005/2008 33015KT TAF
TAF LHBP 191100Z 1912/2012 32010KT CAVOK BECMG 1917/1919 28005KT BECMG 1922/1924 VRB03KT BECMG 2005/2008 33015KT =
SR / SS: 03:52 / 17:41 UTC (Börgönd 2015-04-19)
Hungarian Chinese (Simplified) Croatian Czech English Finnish French German Hebrew Italian Japanese Polish Portuguese Romanian Russian Serbian Slovak Slovenian Spanish

Belépés tagoknak